sensor_id;sensor_type;location;lat;lon;timestamp;pressure;altitude;pressure_sealevel;temperature;humidity
62333;BME280;48624;49.812;8.562;2023-05-23T00:00:41;100401.22;;;18.48;89.16
62333;BME280;48624;49.812;8.562;2023-05-23T00:03:06;100394.69;;;18.50;88.82
62333;BME280;48624;49.812;8.562;2023-05-23T00:05:33;100394.16;;;18.47;88.81
62333;BME280;48624;49.812;8.562;2023-05-23T00:07:59;100393.41;;;18.54;88.17
62333;BME280;48624;49.812;8.562;2023-05-23T00:10:25;100401.78;;;18.60;87.50
62333;BME280;48624;49.812;8.562;2023-05-23T00:12:50;100398.56;;;18.56;88.27
62333;BME280;48624;49.812;8.562;2023-05-23T00:15:16;100394.50;;;18.43;89.26
62333;BME280;48624;49.812;8.562;2023-05-23T00:17:41;100395.16;;;18.46;89.21
62333;BME280;48624;49.812;8.562;2023-05-23T00:20:09;100403.34;;;18.44;88.84
62333;BME280;48624;49.812;8.562;2023-05-23T00:22:35;100403.81;;;18.39;89.30
62333;BME280;48624;49.812;8.562;2023-05-23T00:25:04;100395.97;;;18.20;91.15
62333;BME280;48624;49.812;8.562;2023-05-23T00:27:30;100401.66;;;18.16;91.23
62333;BME280;48624;49.812;8.562;2023-05-23T00:29:55;100405.41;;;18.06;92.17
62333;BME280;48624;49.812;8.562;2023-05-23T00:32:20;100415.06;;;18.16;91.21
62333;BME280;48624;49.812;8.562;2023-05-23T00:34:46;100407.84;;;17.99;92.55
62333;BME280;48624;49.812;8.562;2023-05-23T00:37:12;100399.66;;;18.00;91.86
62333;BME280;48624;49.812;8.562;2023-05-23T00:39:38;100401.97;;;17.77;94.40
62333;BME280;48624;49.812;8.562;2023-05-23T00:42:04;100400.72;;;17.89;92.90
62333;BME280;48624;49.812;8.562;2023-05-23T00:44:30;100399.28;;;17.95;91.50
62333;BME280;48624;49.812;8.562;2023-05-23T00:46:55;100401.38;;;17.83;92.72
62333;BME280;48624;49.812;8.562;2023-05-23T00:49:22;100400.19;;;17.68;93.82
62333;BME280;48624;49.812;8.562;2023-05-23T00:51:47;100405.16;;;17.63;93.91
62333;BME280;48624;49.812;8.562;2023-05-23T00:54:36;100404.91;;;17.38;95.90
62333;BME280;48624;49.812;8.562;2023-05-23T00:57:02;100408.66;;;17.45;95.46
62333;BME280;48624;49.812;8.562;2023-05-23T00:59:27;100414.88;;;17.45;95.29
62333;BME280;48624;49.812;8.562;2023-05-23T01:01:55;100416.91;;;17.33;96.71
62333;BME280;48624;49.812;8.562;2023-05-23T01:04:21;100418.78;;;17.51;94.47
62333;BME280;48624;49.812;8.562;2023-05-23T01:06:51;100422.91;;;17.64;92.53
62333;BME280;48624;49.812;8.562;2023-05-23T01:09:17;100424.97;;;17.52;93.80
62333;BME280;48624;49.812;8.562;2023-05-23T01:15:27;100416.69;;;17.45;94.46
62333;BME280;48624;49.812;8.562;2023-05-23T01:18:15;100420.34;;;17.44;93.95
62333;BME280;48624;49.812;8.562;2023-05-23T01:20:51;100416.16;;;17.41;94.57
62333;BME280;48624;49.812;8.562;2023-05-23T01:23:36;100421.56;;;17.31;95.39
62333;BME280;48624;49.812;8.562;2023-05-23T01:26:28;100418.00;;;17.41;94.03
62333;BME280;48624;49.812;8.562;2023-05-23T01:29:02;100420.34;;;17.44;93.55
62333;BME280;48624;49.812;8.562;2023-05-23T01:31:35;100424.56;;;17.28;95.09
62333;BME280;48624;49.812;8.562;2023-05-23T01:34:01;100420.72;;;17.31;94.87
62333;BME280;48624;49.812;8.562;2023-05-23T01:36:27;100426.88;;;17.13;96.56
62333;BME280;48624;49.812;8.562;2023-05-23T01:38:53;100426.88;;;17.13;96.31
62333;BME280;48624;49.812;8.562;2023-05-23T01:41:18;100435.28;;;17.18;95.48
62333;BME280;48624;49.812;8.562;2023-05-23T01:43:45;100431.78;;;17.18;95.44
62333;BME280;48624;49.812;8.562;2023-05-23T01:46:11;100424.09;;;17.05;97.08
62333;BME280;48624;49.812;8.562;2023-05-23T01:48:38;100428.47;;;17.06;96.46
62333;BME280;48624;49.812;8.562;2023-05-23T01:51:04;100431.50;;;17.11;95.57
62333;BME280;48624;49.812;8.562;2023-05-23T01:53:31;100436.03;;;17.11;95.49
62333;BME280;48624;49.812;8.562;2023-05-23T01:55:57;100435.78;;;17.04;96.19
62333;BME280;48624;49.812;8.562;2023-05-23T01:58:22;100433.84;;;16.86;97.96
62333;BME280;48624;49.812;8.562;2023-05-23T02:00:48;100425.09;;;16.94;97.18
62333;BME280;48624;49.812;8.562;2023-05-23T02:03:14;100422.81;;;16.99;96.43
62333;BME280;48624;49.812;8.562;2023-05-23T02:05:40;100426.50;;;16.98;95.97
62333;BME280;48624;49.812;8.562;2023-05-23T02:08:05;100422.97;;;16.88;97.30
62333;BME280;48624;49.812;8.562;2023-05-23T02:10:30;100429.16;;;16.98;95.71
62333;BME280;48624;49.812;8.562;2023-05-23T02:12:56;100430.56;;;17.02;94.54
62333;BME280;48624;49.812;8.562;2023-05-23T02:15:21;100438.47;;;17.04;95.00
62333;BME280;48624;49.812;8.562;2023-05-23T02:17:46;100445.09;;;16.90;96.08
62333;BME280;48624;49.812;8.562;2023-05-23T02:20:12;100443.50;;;16.97;94.94
62333;BME280;48624;49.812;8.562;2023-05-23T02:22:38;100439.44;;;16.93;94.92
62333;BME280;48624;49.812;8.562;2023-05-23T02:25:04;100448.06;;;16.87;95.31
62333;BME280;48624;49.812;8.562;2023-05-23T02:27:30;100443.25;;;16.90;94.69
62333;BME280;48624;49.812;8.562;2023-05-23T02:29:55;100456.25;;;16.85;95.15
62333;BME280;48624;49.812;8.562;2023-05-23T02:32:20;100461.88;;;16.82;95.57
62333;BME280;48624;49.812;8.562;2023-05-23T02:34:46;100456.59;;;16.53;98.58
62333;BME280;48624;49.812;8.562;2023-05-23T02:37:15;100472.19;;;16.67;96.70
62333;BME280;48624;49.812;8.562;2023-05-23T02:39:41;100472.06;;;16.59;97.77
62333;BME280;48624;49.812;8.562;2023-05-23T02:42:07;100475.13;;;16.74;96.48
62333;BME280;48624;49.812;8.562;2023-05-23T02:44:32;100486.25;;;16.69;97.15
62333;BME280;48624;49.812;8.562;2023-05-23T02:46:57;100492.72;;;16.76;96.61
62333;BME280;48624;49.812;8.562;2023-05-23T02:49:23;100497.84;;;16.60;97.03
62333;BME280;48624;49.812;8.562;2023-05-23T02:51:48;100492.47;;;16.70;96.08
62333;BME280;48624;49.812;8.562;2023-05-23T02:54:13;100495.25;;;16.78;94.70
62333;BME280;48624;49.812;8.562;2023-05-23T02:56:39;100493.44;;;16.59;94.74
62333;BME280;48624;49.812;8.562;2023-05-23T02:59:04;100494.97;;;16.81;93.76
62333;BME280;48624;49.812;8.562;2023-05-23T03:01:29;100498.38;;;16.73;92.60
62333;BME280;48624;49.812;8.562;2023-05-23T03:03:55;100502.28;;;16.89;92.65
62333;BME280;48624;49.812;8.562;2023-05-23T03:06:20;100502.00;;;16.82;92.65
62333;BME280;48624;49.812;8.562;2023-05-23T03:08:46;100500.47;;;16.80;92.19
62333;BME280;48624;49.812;8.562;2023-05-23T03:11:12;100507.78;;;16.87;91.40
62333;BME280;48624;49.812;8.562;2023-05-23T03:13:37;100510.19;;;17.00;90.92
62333;BME280;48624;49.812;8.562;2023-05-23T03:16:03;100504.66;;;17.02;90.87
62333;BME280;48624;49.812;8.562;2023-05-23T03:18:28;100504.66;;;17.02;90.60
62333;BME280;48624;49.812;8.562;2023-05-23T03:20:53;100500.88;;;16.95;90.62
62333;BME280;48624;49.812;8.562;2023-05-23T03:23:19;100503.78;;;17.11;89.60
62333;BME280;48624;49.812;8.562;2023-05-23T03:25:44;100505.38;;;17.04;89.90
62333;BME280;48624;49.812;8.562;2023-05-23T03:28:10;100507.63;;;17.09;89.07
62333;BME280;48624;49.812;8.562;2023-05-23T03:30:36;100510.72;;;17.04;88.96
62333;BME280;48624;49.812;8.562;2023-05-23T03:33:01;100501.41;;;17.08;88.33
62333;BME280;48624;49.812;8.562;2023-05-23T03:35:27;100507.66;;;16.79;89.40
62333;BME280;48624;49.812;8.562;2023-05-23T03:37:52;100509.59;;;16.87;89.32
62333;BME280;48624;49.812;8.562;2023-05-23T03:40:17;100516.81;;;16.57;90.32
62333;BME280;48624;49.812;8.562;2023-05-23T03:42:43;100515.84;;;16.68;89.67
62333;BME280;48624;49.812;8.562;2023-05-23T03:45:08;100511.06;;;16.52;90.26
62333;BME280;48624;49.812;8.562;2023-05-23T03:47:33;100511.91;;;16.62;89.65
62333;BME280;48624;49.812;8.562;2023-05-23T03:49:59;100516.41;;;16.71;89.00
62333;BME280;48624;49.812;8.562;2023-05-23T03:52:24;100515.56;;;16.61;89.45
62333;BME280;48624;49.812;8.562;2023-05-23T03:54:50;100520.16;;;16.88;87.79
62333;BME280;48624;49.812;8.562;2023-05-23T03:57:15;100527.09;;;16.71;88.32
62333;BME280;48624;49.812;8.562;2023-05-23T03:59:40;100535.13;;;16.61;89.14
62333;BME280;48624;49.812;8.562;2023-05-23T04:02:06;100538.91;;;16.59;89.25
62333;BME280;48624;49.812;8.562;2023-05-23T04:04:31;100545.00;;;16.61;89.16
62333;BME280;48624;49.812;8.562;2023-05-23T04:06:57;100542.59;;;16.58;89.06
62333;BME280;48624;49.812;8.562;2023-05-23T04:09:23;100543.31;;;16.60;88.70
62333;BME280;48624;49.812;8.562;2023-05-23T04:11:48;100551.59;;;16.37;90.25
62333;BME280;48624;49.812;8.562;2023-05-23T04:14:13;100554.81;;;16.31;89.73
62333;BME280;48624;49.812;8.562;2023-05-23T04:16:39;100551.72;;;16.35;89.19
62333;BME280;48624;49.812;8.562;2023-05-23T04:19:06;100548.94;;;16.27;88.97
62333;BME280;48624;49.812;8.562;2023-05-23T04:21:32;100554.38;;;16.06;90.33
62333;BME280;48624;49.812;8.562;2023-05-23T04:23:58;100556.75;;;16.09;90.09
62333;BME280;48624;49.812;8.562;2023-05-23T04:26:23;100555.19;;;15.97;90.40
62333;BME280;48624;49.812;8.562;2023-05-23T04:28:49;100558.19;;;15.72;91.22
62333;BME280;48624;49.812;8.562;2023-05-23T04:31:21;100559.72;;;15.65;91.10
62333;BME280;48624;49.812;8.562;2023-05-23T04:33:46;100560.69;;;15.64;90.59
62333;BME280;48624;49.812;8.562;2023-05-23T04:36:12;100559.13;;;15.61;90.81
62333;BME280;48624;49.812;8.562;2023-05-23T04:38:37;100561.16;;;15.79;90.29
62333;BME280;48624;49.812;8.562;2023-05-23T04:41:06;100574.44;;;15.90;89.48
62333;BME280;48624;49.812;8.562;2023-05-23T04:43:31;100575.88;;;15.94;89.72
62333;BME280;48624;49.812;8.562;2023-05-23T04:46:01;100571.81;;;16.10;89.00
62333;BME280;48624;49.812;8.562;2023-05-23T04:48:26;100581.38;;;16.13;88.70
62333;BME280;48624;49.812;8.562;2023-05-23T04:50:52;100589.97;;;16.26;88.77
62333;BME280;48624;49.812;8.562;2023-05-23T04:53:20;100580.03;;;16.28;87.94
62333;BME280;48624;49.812;8.562;2023-05-23T04:55:45;100581.69;;;16.19;87.61
62333;BME280;48624;49.812;8.562;2023-05-23T04:58:11;100587.06;;;16.49;86.55
62333;BME280;48624;49.812;8.562;2023-05-23T05:00:37;100594.25;;;16.58;85.92
62333;BME280;48624;49.812;8.562;2023-05-23T05:03:02;100596.34;;;16.55;85.98
62333;BME280;48624;49.812;8.562;2023-05-23T05:05:28;100596.78;;;16.70;86.03
62333;BME280;48624;49.812;8.562;2023-05-23T05:07:53;100597.06;;;16.57;85.32
62333;BME280;48624;49.812;8.562;2023-05-23T05:10:19;100604.38;;;16.74;85.13
62333;BME280;48624;49.812;8.562;2023-05-23T05:12:45;100608.22;;;17.01;83.83
62333;BME280;48624;49.812;8.562;2023-05-23T05:15:12;100616.06;;;16.93;84.04
62333;BME280;48624;49.812;8.562;2023-05-23T05:17:38;100616.06;;;16.93;84.65
62333;BME280;48624;49.812;8.562;2023-05-23T05:20:04;100611.81;;;17.30;82.91
62333;BME280;48624;49.812;8.562;2023-05-23T05:22:34;100622.84;;;17.17;83.59
62333;BME280;48624;49.812;8.562;2023-05-23T05:24:59;100619.47;;;16.85;85.17
62333;BME280;48624;49.812;8.562;2023-05-23T05:27:26;100616.22;;;16.62;86.06
62333;BME280;48624;49.812;8.562;2023-05-23T05:29:51;100619.75;;;17.02;84.31
62333;BME280;48624;49.812;8.562;2023-05-23T05:32:17;100623.09;;;16.64;85.89
62333;BME280;48624;49.812;8.562;2023-05-23T05:34:43;100627.03;;;16.41;86.07
62333;BME280;48624;49.812;8.562;2023-05-23T05:37:08;100628.44;;;16.55;85.25
62333;BME280;48624;49.812;8.562;2023-05-23T05:39:33;100636.59;;;16.53;85.07
62333;BME280;48624;49.812;8.562;2023-05-23T05:41:59;100635.22;;;16.69;84.51
62333;BME280;48624;49.812;8.562;2023-05-23T05:44:25;100629.72;;;16.80;84.15
62333;BME280;48624;49.812;8.562;2023-05-23T05:46:51;100637.06;;;16.98;83.15
62333;BME280;48624;49.812;8.562;2023-05-23T05:49:16;100637.75;;;17.00;81.59
62333;BME280;48624;49.812;8.562;2023-05-23T05:51:41;100639.44;;;17.20;80.45
62333;BME280;48624;49.812;8.562;2023-05-23T05:54:06;100646.06;;;17.36;80.43
62333;BME280;48624;49.812;8.562;2023-05-23T05:56:32;100644.50;;;17.33;80.51
62333;BME280;48624;49.812;8.562;2023-05-23T05:58:57;100650.72;;;17.34;79.12
62333;BME280;48624;49.812;8.562;2023-05-23T06:01:23;100653.50;;;17.42;79.39
62333;BME280;48624;49.812;8.562;2023-05-23T06:03:49;100656.91;;;17.34;79.01
62333;BME280;48624;49.812;8.562;2023-05-23T06:06:15;100653.69;;;17.21;79.03
62333;BME280;48624;49.812;8.562;2023-05-23T06:08:40;100668.06;;;17.00;79.02
62333;BME280;48624;49.812;8.562;2023-05-23T06:11:06;100658.19;;;17.01;79.35
62333;BME280;48624;49.812;8.562;2023-05-23T06:13:31;100670.03;;;17.08;79.07
62333;BME280;48624;49.812;8.562;2023-05-23T06:15:56;100665.69;;;17.17;78.98
62333;BME280;48624;49.812;8.562;2023-05-23T06:18:22;100666.94;;;17.23;78.17
62333;BME280;48624;49.812;8.562;2023-05-23T06:20:47;100672.69;;;17.38;78.09
62333;BME280;48624;49.812;8.562;2023-05-23T06:23:13;100670.47;;;17.13;77.99
62333;BME280;48624;49.812;8.562;2023-05-23T06:25:38;100672.00;;;17.16;79.15
62333;BME280;48624;49.812;8.562;2023-05-23T06:28:03;100680.03;;;17.26;79.07
62333;BME280;48624;49.812;8.562;2023-05-23T06:30:29;100688.19;;;16.75;80.68
62333;BME280;48624;49.812;8.562;2023-05-23T06:32:54;100674.66;;;16.96;79.68
62333;BME280;48624;49.812;8.562;2023-05-23T06:35:19;100680.00;;;16.96;79.44
62333;BME280;48624;49.812;8.562;2023-05-23T06:37:45;100686.09;;;17.18;78.80
62333;BME280;48624;49.812;8.562;2023-05-23T06:40:11;100678.50;;;17.03;79.96
62333;BME280;48624;49.812;8.562;2023-05-23T06:42:38;100684.66;;;17.33;79.04
62333;BME280;48624;49.812;8.562;2023-05-23T06:45:03;100676.19;;;16.99;80.09
62333;BME280;48624;49.812;8.562;2023-05-23T06:47:29;100687.06;;;17.27;77.77
62333;BME280;48624;49.812;8.562;2023-05-23T06:49:55;100686.22;;;17.36;77.37
62333;BME280;48624;49.812;8.562;2023-05-23T06:52:20;100687.34;;;17.43;76.33
62333;BME280;48624;49.812;8.562;2023-05-23T06:54:45;100688.69;;;17.67;76.40
62333;BME280;48624;49.812;8.562;2023-05-23T07:00:09;100692.63;;;17.73;75.33
62333;BME280;48624;49.812;8.562;2023-05-23T07:02:34;100688.44;;;17.60;74.80
62333;BME280;48624;49.812;8.562;2023-05-23T07:05:00;100684.69;;;17.81;75.22
62333;BME280;48624;49.812;8.562;2023-05-23T07:07:25;100691.59;;;17.94;72.97
62333;BME280;48624;49.812;8.562;2023-05-23T07:09:50;100695.72;;;17.78;73.34
62333;BME280;48624;49.812;8.562;2023-05-23T07:12:16;100694.66;;;17.99;72.28
62333;BME280;48624;49.812;8.562;2023-05-23T07:14:41;100694.34;;;18.12;72.23
62333;BME280;48624;49.812;8.562;2023-05-23T07:17:06;100699.72;;;17.54;74.17
62333;BME280;48624;49.812;8.562;2023-05-23T07:19:32;100694.03;;;17.77;73.22
62333;BME280;48624;49.812;8.562;2023-05-23T07:21:57;100693.78;;;17.60;72.90
62333;BME280;48624;49.812;8.562;2023-05-23T07:24:22;100701.53;;;17.64;72.03
62333;BME280;48624;49.812;8.562;2023-05-23T07:26:47;100699.75;;;17.92;71.29
62333;BME280;48624;49.812;8.562;2023-05-23T07:29:13;100700.00;;;17.61;73.36
62333;BME280;48624;49.812;8.562;2023-05-23T07:31:39;100706.81;;;17.93;72.67
62333;BME280;48624;49.812;8.562;2023-05-23T07:34:04;100706.56;;;17.86;71.53
62333;BME280;48624;49.812;8.562;2023-05-23T07:36:29;100707.88;;;17.72;72.04
62333;BME280;48624;49.812;8.562;2023-05-23T07:38:58;100699.72;;;18.40;69.33
62333;BME280;48624;49.812;8.562;2023-05-23T07:41:23;100706.91;;;18.11;70.39
62333;BME280;48624;49.812;8.562;2023-05-23T07:43:49;100714.22;;;18.47;70.24
62333;BME280;48624;49.812;8.562;2023-05-23T07:46:14;100715.09;;;18.10;70.89
62333;BME280;48624;49.812;8.562;2023-05-23T07:48:39;100705.97;;;17.93;70.86
62333;BME280;48624;49.812;8.562;2023-05-23T07:51:09;100711.50;;;17.81;70.87
62333;BME280;48624;49.812;8.562;2023-05-23T07:53:36;100713.72;;;17.86;71.27
62333;BME280;48624;49.812;8.562;2023-05-23T07:56:04;100704.06;;;18.23;70.48
62333;BME280;48624;49.812;8.562;2023-05-23T07:58:30;100700.03;;;18.37;70.21
62333;BME280;48624;49.812;8.562;2023-05-23T08:00:55;100710.44;;;18.86;67.54
62333;BME280;48624;49.812;8.562;2023-05-23T08:03:22;100708.47;;;18.88;68.00
62333;BME280;48624;49.812;8.562;2023-05-23T08:05:49;100706.41;;;18.54;69.91
62333;BME280;48624;49.812;8.562;2023-05-23T08:08:15;100710.09;;;19.17;67.56
62333;BME280;48624;49.812;8.562;2023-05-23T08:10:40;100707.25;;;19.19;67.88
62333;BME280;48624;49.812;8.562;2023-05-23T08:13:08;100710.03;;;19.53;65.61
62333;BME280;48624;49.812;8.562;2023-05-23T08:15:34;100717.63;;;19.58;65.42
62333;BME280;48624;49.812;8.562;2023-05-23T08:18:00;100707.84;;;19.75;64.74
62333;BME280;48624;49.812;8.562;2023-05-23T08:20:26;100716.97;;;19.38;65.90
62333;BME280;48624;49.812;8.562;2023-05-23T08:22:59;100713.69;;;19.26;66.08
62333;BME280;48624;49.812;8.562;2023-05-23T08:25:25;100717.09;;;19.54;65.58
62333;BME280;48624;49.812;8.562;2023-05-23T08:27:56;100732.13;;;19.65;65.42
62333;BME280;48624;49.812;8.562;2023-05-23T08:30:22;100725.69;;;19.58;66.12
62333;BME280;48624;49.812;8.562;2023-05-23T08:32:50;100721.34;;;19.83;65.56
62333;BME280;48624;49.812;8.562;2023-05-23T08:35:15;100720.28;;;20.03;64.88
62333;BME280;48624;49.812;8.562;2023-05-23T08:37:40;100713.88;;;19.51;66.31
62333;BME280;48624;49.812;8.562;2023-05-23T08:40:06;100713.78;;;19.61;66.81
62333;BME280;48624;49.812;8.562;2023-05-23T08:42:37;100715.38;;;19.98;63.72
62333;BME280;48624;49.812;8.562;2023-05-23T08:45:03;100711.25;;;19.86;63.56
62333;BME280;48624;49.812;8.562;2023-05-23T08:47:31;100708.34;;;19.08;66.73
62333;BME280;48624;49.812;8.562;2023-05-23T08:49:58;100709.06;;;19.00;67.00
62333;BME280;48624;49.812;8.562;2023-05-23T08:52:26;100717.28;;;18.98;67.46
62333;BME280;48624;49.812;8.562;2023-05-23T08:54:54;100725.56;;;19.23;68.09
62333;BME280;48624;49.812;8.562;2023-05-23T08:57:20;100728.69;;;19.55;66.99
62333;BME280;48624;49.812;8.562;2023-05-23T08:59:48;100729.03;;;18.97;68.10
62333;BME280;48624;49.812;8.562;2023-05-23T09:02:15;100723.75;;;19.24;67.59
62333;BME280;48624;49.812;8.562;2023-05-23T09:04:41;100734.88;;;19.74;66.81
62333;BME280;48624;49.812;8.562;2023-05-23T09:07:07;100738.13;;;19.59;65.99
62333;BME280;48624;49.812;8.562;2023-05-23T09:09:33;100728.88;;;20.06;64.22
62333;BME280;48624;49.812;8.562;2023-05-23T09:11:59;100739.16;;;20.54;62.79
62333;BME280;48624;49.812;8.562;2023-05-23T09:14:25;100732.38;;;20.85;61.68
62333;BME280;48624;49.812;8.562;2023-05-23T09:16:50;100736.59;;;19.83;64.90
62333;BME280;48624;49.812;8.562;2023-05-23T09:19:17;100743.47;;;19.77;65.79
62333;BME280;48624;49.812;8.562;2023-05-23T09:21:43;100740.63;;;19.79;65.95
62333;BME280;48624;49.812;8.562;2023-05-23T09:24:12;100737.69;;;19.46;66.81
62333;BME280;48624;49.812;8.562;2023-05-23T09:26:37;100726.75;;;19.21;67.00
62333;BME280;48624;49.812;8.562;2023-05-23T09:29:05;100728.00;;;19.35;66.98
62333;BME280;48624;49.812;8.562;2023-05-23T09:31:31;100732.09;;;19.39;66.88
62333;BME280;48624;49.812;8.562;2023-05-23T09:33:57;100728.81;;;19.72;65.87
62333;BME280;48624;49.812;8.562;2023-05-23T09:36:27;100731.84;;;19.95;66.04
62333;BME280;48624;49.812;8.562;2023-05-23T09:39:01;100729.72;;;19.18;67.07
62333;BME280;48624;49.812;8.562;2023-05-23T09:41:29;100722.28;;;20.01;65.63
62333;BME280;48624;49.812;8.562;2023-05-23T09:43:54;100721.53;;;20.17;65.38
62333;BME280;48624;49.812;8.562;2023-05-23T09:46:21;100717.69;;;20.71;62.14
62333;BME280;48624;49.812;8.562;2023-05-23T09:48:50;100716.94;;;21.12;59.59
62333;BME280;48624;49.812;8.562;2023-05-23T09:51:21;100725.47;;;20.82;61.31
62333;BME280;48624;49.812;8.562;2023-05-23T09:53:48;100717.72;;;20.79;61.56
62333;BME280;48624;49.812;8.562;2023-05-23T09:56:18;100735.28;;;20.48;63.20
62333;BME280;48624;49.812;8.562;2023-05-23T09:58:47;100734.06;;;20.00;62.85
62333;BME280;48624;49.812;8.562;2023-05-23T10:01:13;100738.75;;;19.79;64.70
62333;BME280;48624;49.812;8.562;2023-05-23T10:06:17;100738.44;;;19.56;64.42
62333;BME280;48624;49.812;8.562;2023-05-23T10:08:53;100742.97;;;19.55;65.72
62333;BME280;48624;49.812;8.562;2023-05-23T10:14:28;100747.88;;;19.60;64.35
62333;BME280;48624;49.812;8.562;2023-05-23T10:17:06;100744.81;;;19.81;64.34
62333;BME280;48624;49.812;8.562;2023-05-23T10:20:09;100743.81;;;20.35;63.00
62333;BME280;48624;49.812;8.562;2023-05-23T10:22:36;100753.28;;;20.56;61.59
62333;BME280;48624;49.812;8.562;2023-05-23T10:25:03;100746.56;;;19.91;63.59
62333;BME280;48624;49.812;8.562;2023-05-23T10:27:30;100747.38;;;20.52;61.51
62333;BME280;48624;49.812;8.562;2023-05-23T10:29:56;100752.59;;;20.46;61.81
62333;BME280;48624;49.812;8.562;2023-05-23T10:32:22;100755.47;;;21.12;59.07
62333;BME280;48624;49.812;8.562;2023-05-23T10:35:06;100754.41;;;20.37;61.53
62333;BME280;48624;49.812;8.562;2023-05-23T10:37:35;100753.66;;;19.92;64.58
62333;BME280;48624;49.812;8.562;2023-05-23T10:40:09;100753.47;;;20.20;63.47
62333;BME280;48624;49.812;8.562;2023-05-23T10:45:41;100757.53;;;20.67;60.84
62333;BME280;48624;49.812;8.562;2023-05-23T10:48:40;100745.56;;;21.38;59.89
62333;BME280;48624;49.812;8.562;2023-05-23T10:51:07;100741.34;;;21.10;60.38
62333;BME280;48624;49.812;8.562;2023-05-23T10:53:45;100743.38;;;20.57;61.25
62333;BME280;48624;49.812;8.562;2023-05-23T10:56:19;100744.13;;;20.75;61.06
62333;BME280;48624;49.812;8.562;2023-05-23T10:58:53;100747.00;;;20.39;61.34
62333;BME280;48624;49.812;8.562;2023-05-23T11:01:28;100754.75;;;20.42;62.26
62333;BME280;48624;49.812;8.562;2023-05-23T11:03:53;100755.56;;;20.34;61.88
62333;BME280;48624;49.812;8.562;2023-05-23T11:06:52;100754.00;;;20.58;61.14
62333;BME280;48624;49.812;8.562;2023-05-23T11:09:18;100755.09;;;20.82;61.08
62333;BME280;48624;49.812;8.562;2023-05-23T11:12:02;100754.31;;;21.31;57.76
62333;BME280;48624;49.812;8.562;2023-05-23T11:14:50;100758.34;;;21.27;58.06
62333;BME280;48624;49.812;8.562;2023-05-23T11:17:18;100758.19;;;21.29;59.14
62333;BME280;48624;49.812;8.562;2023-05-23T11:20:10;100758.16;;;20.87;59.47
62333;BME280;48624;49.812;8.562;2023-05-23T11:22:39;100761.06;;;20.68;61.26
62333;BME280;48624;49.812;8.562;2023-05-23T11:25:07;100765.44;;;20.60;61.73
62333;BME280;48624;49.812;8.562;2023-05-23T11:27:35;100756.66;;;20.93;60.85
62333;BME280;48624;49.812;8.562;2023-05-23T11:30:12;100759.72;;;21.23;59.86
62333;BME280;48624;49.812;8.562;2023-05-23T11:32:40;100761.84;;;21.03;58.30
62333;BME280;48624;49.812;8.562;2023-05-23T11:35:12;100762.38;;;21.06;58.73
62333;BME280;48624;49.812;8.562;2023-05-23T11:37:38;100768.00;;;20.78;60.27
62333;BME280;48624;49.812;8.562;2023-05-23T11:42:58;100757.78;;;20.39;62.82
62333;BME280;48624;49.812;8.562;2023-05-23T11:45:27;100765.59;;;20.59;62.50
62333;BME280;48624;49.812;8.562;2023-05-23T11:47:53;100754.84;;;21.27;60.32
62333;BME280;48624;49.812;8.562;2023-05-23T11:50:18;100758.38;;;21.77;60.24
62333;BME280;48624;49.812;8.562;2023-05-23T11:53:04;100748.91;;;21.98;59.98
62333;BME280;48624;49.812;8.562;2023-05-23T11:55:29;100754.94;;;22.08;56.98
62333;BME280;48624;49.812;8.562;2023-05-23T11:57:55;100755.31;;;21.47;58.98
62333;BME280;48624;49.812;8.562;2023-05-23T12:00:24;100754.31;;;21.65;59.00
62333;BME280;48624;49.812;8.562;2023-05-23T12:02:50;100756.84;;;21.66;59.06
62333;BME280;48624;49.812;8.562;2023-05-23T12:05:15;100758.25;;;22.27;57.83
62333;BME280;48624;49.812;8.562;2023-05-23T12:07:42;100754.66;;;21.86;58.19
62333;BME280;48624;49.812;8.562;2023-05-23T12:10:15;100760.41;;;21.50;58.95
62333;BME280;48624;49.812;8.562;2023-05-23T12:12:41;100758.03;;;21.88;57.85
62333;BME280;48624;49.812;8.562;2023-05-23T12:15:10;100759.28;;;22.17;57.87
62333;BME280;48624;49.812;8.562;2023-05-23T12:17:44;100756.63;;;22.89;56.31
62333;BME280;48624;49.812;8.562;2023-05-23T12:20:12;100759.53;;;23.11;56.25
62333;BME280;48624;49.812;8.562;2023-05-23T12:22:38;100760.06;;;23.91;51.67
62333;BME280;48624;49.812;8.562;2023-05-23T12:25:09;100758.81;;;23.40;54.49
62333;BME280;48624;49.812;8.562;2023-05-23T12:27:40;100757.56;;;24.05;52.57
62333;BME280;48624;49.812;8.562;2023-05-23T12:30:12;100759.84;;;23.93;51.98
62333;BME280;48624;49.812;8.562;2023-05-23T12:32:39;100757.94;;;24.17;49.52
62333;BME280;48624;49.812;8.562;2023-05-23T12:35:13;100760.91;;;24.22;50.37
62333;BME280;48624;49.812;8.562;2023-05-23T12:37:40;100761.88;;;22.51;55.49
62333;BME280;48624;49.812;8.562;2023-05-23T12:40:14;100772.25;;;22.30;57.09
62333;BME280;48624;49.812;8.562;2023-05-23T12:42:50;100768.78;;;21.63;56.96
62333;BME280;48624;49.812;8.562;2023-05-23T12:45:32;100763.06;;;21.17;59.74
62333;BME280;48624;49.812;8.562;2023-05-23T12:47:59;100778.75;;;21.63;59.63
62333;BME280;48624;49.812;8.562;2023-05-23T12:50:24;100761.03;;;21.19;60.30
62333;BME280;48624;49.812;8.562;2023-05-23T12:52:50;100759.03;;;21.62;57.81
62333;BME280;48624;49.812;8.562;2023-05-23T12:55:16;100763.91;;;21.51;59.02
62333;BME280;48624;49.812;8.562;2023-05-23T12:57:41;100763.84;;;22.09;56.82
62333;BME280;48624;49.812;8.562;2023-05-23T13:00:07;100764.44;;;21.79;57.48
62333;BME280;48624;49.812;8.562;2023-05-23T13:02:33;100772.34;;;21.81;56.57
62333;BME280;48624;49.812;8.562;2023-05-23T13:04:58;100769.56;;;22.22;57.33
62333;BME280;48624;49.812;8.562;2023-05-23T13:07:23;100763.97;;;22.24;55.64
62333;BME280;48624;49.812;8.562;2023-05-23T13:09:49;100758.41;;;23.05;54.11